Impacts TAF Board
For situational awareness. Not to be used for flight planning purposes.
IDs:

KDTW - Detroit Metro/Wayne, MI, US

Issued at 1506 UTC 22 Sep 2019
Updated at 1648 UTC 22 Sep 2019
Potential Impact None Slight Moderate High
Time<<23/05Z 23/06Z 23/07Z 23/08Z 23/09Z 23/10Z 23/11Z 23/12Z 23/13Z 23/14Z 23/15Z 23/16Z 23/17Z>>
Type PRVL PRVL PRVL PRVL PRVL PRVL PRVL PRVL PRVL PRVL PRVL PRVL PRVL
VIS 6 6 6 6 4 4 4 4 >6 >6 >6 >6 >6
CIG 35 35 35 35 15 15 15 15 15 15 15 25 25
Cover OVC OVC OVC OVC OVC OVC OVC OVC OVC OVC OVC OVC OVC
FltCat VFR VFR VFR VFR MVFR MVFR MVFR MVFR MVFR MVFR MVFR MVFR MVFR
WX -SHRA -SHRA -SHRA -SHRA -SHRA -SHRA -SHRA -SHRA -- -- -- -- --
WDir 200 200 200 200 210 210 210 210 260 260 260 280 280
WSpd 13 13 13 13 13 13 13 13 15 15 15 16 16
WGst -- -- -- -- -- -- -- -- -- -- -- 25 25
Raw TAF
KDTW 221506Z 2215/2318 21010KT P6SM BKN200
  FM221800 22015G25KT P6SM BKN120
  FM230000 21013G18KT P6SM SCT040 OVC060
  FM230300 20013KT 6SM -SHRA SCT022 OVC035
  FM230900 21013KT 4SM -SHRA BKN015 OVC025
  FM231300 26015KT P6SM OVC015
  FM231600 28016G25KT P6SM OVC025


METAR Board
Radar Display
Forecast Discussion
For situational awareness. Not to be used for flight planning purposes.